עמוד ראשי
METAR-TAF:

METAR-TAF

שדות תעופה :

נמל התעופה הבינלאומי דובאי

דובאי, איחוד האמירויות הערביות

קו רוחב: 25-15-10N, קו אורך: 055-21-52E, גובה: 8מטר

תצפית מזג אוויר נוכחית

הדו"ח נערך לפני 1 שעות ו 12דקות, בשעה 19:00 UTC
רוח 10קשר מכיוון מערב, משתנה בין דרום/דרום-מזרח ו מערב/צפון-מערב
טמפרטורת 38 צלסיוס
לחות 27%
לחץ 1000 hPa
ראות 10 קילומטר או יותר
ללא עננים שבסיסם נמוך מ 5000 רגל או קומולונימבוס

METAR: OMDB 131900Z 26010KT 160V300 CAVOK 38/16 Q1000 NOSIG

זמן: 00:12 (20:12 UTC)

תחזית

הדו"ח נערך לפני 3 שעות ו 12דקות, בשעה 17:00 UTC
תחזית בתוקף מ 13 ב 18 UTC עד 15 ב 00 UTC
רוח 10קשר מכיוון מערב
ראות: 8000מטר
יעשה מ
13 ב 18 UTC עד 13 ב 20 UTC
רוח 8קשר מכיוון דרום/דרום-מערב
יעשה מ
14 ב 05 UTC עד 14 ב 07 UTC
רוח 14קשר מכיוון מערב
יעשה מ
14 ב 16 UTC עד 14 ב 18 UTC
רוח 6קשר מכיוון דרום

TAF: OMDB 131700Z 1318/1500 26010KT 8000 NSC BECMG 1318/1320 20008KT BECMG 1405/1407 28014KT BECMG 1416/1418 19006KT

תצפיות ותחזיות מזג אוויר לגבי יותר מ- 4,000 שדות תעופה ברחבי העולם. דוחות METAR ו- TAF.

התחנות הזמינות מסומנות בנקודות צהובות ואדומות על גבי המפה.

העבר את העכבר לנקודה הצבעונית על מנת לראות את שם התחנה.

לאחר מכן, לחץ כדי לראות את תוכן ואת תחזיות מזג האוויר.

כדי לשנות את המפה: לחץ על הכפתורים הירוקים עם הפלוס השחור כדי להתקרב; על הכפתור הירוק עם המקף כדי להתרחק; או בחיצים הירוקים למפות סמוכות.


METAR-TAF: